Time;durP1;ratioP1;P1;durP2;ratioP2;P2;SDS_P1;SDS_P2;PMS_P1;PMS_P2;Temp;Humidity;BMP_temperature;BMP_pressure;BME280_temperature;BME280_humidity;BME280_pressure;Samples;Min_cycle;Max_cycle;Signal;HPM_P1;HPM_P2
2021/10/02 00:02:07;;;;;;;8.07;3.75;;;;;;;;;;10422017;28;20127;-68
2021/10/02 00:44:39;;;;;;;7.20;2.97;;;;;;;;;;10448259;28;20262;-70
2021/10/02 00:49:43;;;;;;;4.60;2.42;;;;;;;;;;10447026;28;20068;-70
2021/10/02 00:54:47;;;;;;;6.93;2.97;;;;;;;;;;10441583;28;20338;-71
2021/10/02 00:59:50;;;;;;;8.05;3.47;;;;;;;;;;10445230;28;20041;-70
2021/10/02 01:05:03;;;;;;;6.32;3.05;;;;;;;;;;10444877;28;20041;-71
2021/10/02 01:10:23;;;;;;;5.85;2.75;;;;;;;;;;10444087;28;20037;-70
2021/10/02 01:15:35;;;;;;;7.65;3.25;;;;;;;;;;10441537;28;20060;-71
2021/10/02 01:20:44;;;;;;;8.38;3.35;;;;;;;;;;10446551;28;20041;-70
2021/10/02 01:25:55;;;;;;;10.48;3.15;;;;;;;;;;10442487;28;20090;-70
2021/10/02 01:31:05;;;;;;;7.28;3.00;;;;;;;;;;10462721;28;20595;-71
2021/10/02 01:36:21;;;;;;;7.45;2.88;;;;;;;;;;10438813;28;20156;-69
2021/10/02 01:52:07;;;;;;;6.03;2.47;;;;;;;;;;10444210;28;20064;-70
2021/10/02 01:57:10;;;;;;;6.60;2.70;;;;;;;;;;10437257;28;20153;-69
2021/10/02 02:02:14;;;;;;;8.80;3.20;;;;;;;;;;10441960;28;20151;-71
2021/10/02 02:07:21;;;;;;;5.30;2.70;;;;;;;;;;10440915;28;20044;-70
2021/10/02 02:12:30;;;;;;;5.78;2.97;;;;;;;;;;10444522;28;20048;-71
2021/10/02 02:17:37;;;;;;;7.45;2.78;;;;;;;;;;10439031;28;20045;-70
2021/10/02 02:22:40;;;;;;;5.65;3.03;;;;;;;;;;10445219;28;20120;-71
2021/10/02 02:27:43;;;;;;;7.38;3.17;;;;;;;;;;10439169;28;20040;-70
2021/10/02 02:32:47;;;;;;;6.20;3.00;;;;;;;;;;10443332;28;20049;-71
2021/10/02 02:37:50;;;;;;;6.03;2.55;;;;;;;;;;10440790;28;20558;-71
2021/10/02 02:42:53;;;;;;;7.60;3.10;;;;;;;;;;10444060;28;20144;-69
2021/10/02 02:48:01;;;;;;;7.50;2.90;;;;;;;;;;10438674;28;20476;-69
2021/10/02 02:53:08;;;;;;;8.60;3.40;;;;;;;;;;10438606;28;20182;-70
2021/10/02 02:58:11;;;;;;;6.18;3.00;;;;;;;;;;10442315;28;20103;-70
2021/10/02 03:03:15;;;;;;;5.60;2.50;;;;;;;;;;10440856;28;20457;-69
2021/10/02 03:08:20;;;;;;;5.10;2.72;;;;;;;;;;10441730;28;20079;-70
2021/10/02 03:13:23;;;;;;;5.47;2.70;;;;;;;;;;10439450;28;20037;-70
2021/10/02 03:18:28;;;;;;;4.95;2.75;;;;;;;;;;10436365;28;20493;-70
2021/10/02 03:23:31;;;;;;;5.05;2.65;;;;;;;;;;10440398;28;20088;-70
2021/10/02 03:28:34;;;;;;;6.20;2.67;;;;;;;;;;10441431;28;20041;-69
2021/10/02 03:33:39;;;;;;;6.50;2.80;;;;;;;;;;10441228;28;20110;-70
2021/10/02 03:38:42;;;;;;;5.35;2.40;;;;;;;;;;10444765;28;20036;-69
2021/10/02 03:43:46;;;;;;;6.68;2.28;;;;;;;;;;10450401;28;20136;-70
2021/10/02 03:48:51;;;;;;;6.05;2.85;;;;;;;;;;10443401;28;20033;-69
2021/10/02 03:53:54;;;;;;;8.02;2.70;;;;;;;;;;10447900;28;20052;-71
2021/10/02 03:58:57;;;;;;;5.37;2.57;;;;;;;;;;10449232;28;20544;-70
2021/10/02 04:04:01;;;;;;;4.30;2.30;;;;;;;;;;10448155;28;20548;-70
2021/10/02 04:09:04;;;;;;;7.30;2.92;;;;;;;;;;10445243;28;20147;-71
2021/10/02 04:14:07;;;;;;;6.32;2.97;;;;;;;;;;10446075;28;20625;-72
2021/10/02 04:19:11;;;;;;;6.47;2.95;;;;;;;;;;10445967;28;20120;-70
2021/10/02 04:24:14;;;;;;;6.63;2.75;;;;;;;;;;10446420;28;20049;-68
2021/10/02 04:29:16;;;;;;;5.22;2.75;;;;;;;;;;10448590;28;20069;-71
2021/10/02 04:34:21;;;;;;;5.88;2.88;;;;;;;;;;10443670;28;20476;-70
2021/10/02 04:39:25;;;;;;;8.05;2.50;;;;;;;;;;10446146;28;20041;-69
2021/10/02 04:44:29;;;;;;;5.72;2.85;;;;;;;;;;10446433;28;20043;-69
2021/10/02 04:49:33;;;;;;;7.22;2.92;;;;;;;;;;10442446;28;20508;-70
2021/10/02 04:54:36;;;;;;;5.85;2.53;;;;;;;;;;10446633;28;20068;-68
2021/10/02 04:59:39;;;;;;;;;;;;;;;;;;10446171;28;20501;-67
2021/10/02 05:04:43;;;;;;;5.40;2.17;;;;;;;;;;10440146;28;19970;-70
2021/10/02 05:09:46;;;;;;;5.03;2.55;;;;;;;;;;10446549;28;20065;-70
2021/10/02 05:14:49;;;;;;;6.43;2.88;;;;;;;;;;10444530;28;20132;-70
2021/10/02 05:19:53;;;;;;;6.63;3.08;;;;;;;;;;10445143;28;20048;-69
2021/10/02 05:24:56;;;;;;;6.45;2.63;;;;;;;;;;10441556;28;20116;-68
2021/10/02 05:29:59;;;;;;;8.63;3.13;;;;;;;;;;10447327;28;20045;-69
2021/10/02 05:35:03;;;;;;;8.88;2.83;;;;;;;;;;10439738;28;20491;-69
2021/10/02 05:40:07;;;;;;;6.57;2.80;;;;;;;;;;10439103;28;20044;-69
2021/10/02 05:45:10;;;;;;;7.03;2.95;;;;;;;;;;10442002;28;20079;-70
2021/10/02 05:50:14;;;;;;;11.40;3.10;;;;;;;;;;10445416;28;20472;-70
2021/10/02 05:55:17;;;;;;;4.40;2.65;;;;;;;;;;10441753;28;20124;-70
2021/10/02 06:00:19;;;;;;;8.20;3.15;;;;;;;;;;10437719;28;20144;-70
2021/10/02 06:05:26;;;;;;;4.90;2.65;;;;;;;;;;10444409;28;20037;-71
2021/10/02 06:10:29;;;;;;;6.45;2.55;;;;;;;;;;10444974;28;20040;-67
2021/10/02 06:15:32;;;;;;;6.53;2.72;;;;;;;;;;10444929;28;20041;-69
2021/10/02 06:20:36;;;;;;;15.47;6.60;;;;;;;;;;10441207;28;20041;-70
2021/10/02 06:25:39;;;;;;;5.82;3.20;;;;;;;;;;10437454;28;20087;-69
2021/10/02 06:30:41;;;;;;;8.67;2.70;;;;;;;;;;10443701;28;20041;-69
2021/10/02 06:35:46;;;;;;;7.90;2.73;;;;;;;;;;10442123;28;20497;-70
2021/10/02 06:40:49;;;;;;;8.25;3.00;;;;;;;;;;10443583;28;20403;-70
2021/10/02 06:45:52;;;;;;;;;;;;;;;;;;10439930;28;20044;-71
2021/10/02 06:50:56;;;;;;;6.20;3.38;;;;;;;;;;10441942;28;19926;-71
2021/10/02 06:55:59;;;;;;;6.90;2.78;;;;;;;;;;10443096;28;20473;-70
2021/10/02 07:01:02;;;;;;;9.50;3.10;;;;;;;;;;10440270;28;20048;-70
2021/10/02 07:06:06;;;;;;;7.10;2.40;;;;;;;;;;10438934;28;20304;-69
2021/10/02 07:11:09;;;;;;;7.00;2.80;;;;;;;;;;10443591;28;20076;-70
2021/10/02 07:16:11;;;;;;;2.50;1.70;;;;;;;;;;10440380;28;20521;-71
2021/10/02 07:21:16;;;;;;;4.75;2.28;;;;;;;;;;10455597;28;20295;-70
2021/10/02 07:26:18;;;;;;;6.47;3.03;;;;;;;;;;10439954;28;20116;-71
2021/10/02 07:31:21;;;;;;;6.30;2.97;;;;;;;;;;10443583;28;20076;-71
2021/10/02 07:36:26;;;;;;;7.65;3.60;;;;;;;;;;10439643;28;20083;-69
2021/10/02 07:41:29;;;;;;;5.63;2.58;;;;;;;;;;10442018;28;20182;-71
2021/10/02 07:46:32;;;;;;;7.78;3.05;;;;;;;;;;10439170;28;20052;-71
2021/10/02 07:51:37;;;;;;;8.40;3.60;;;;;;;;;;10433243;28;20045;-71
2021/10/02 07:56:40;;;;;;;5.18;3.10;;;;;;;;;;10437918;28;20457;-71
2021/10/02 08:01:43;;;;;;;6.55;3.42;;;;;;;;;;10448254;28;20704;-71
2021/10/02 08:06:48;;;;;;;4.45;2.22;;;;;;;;;;10434624;28;20120;-69
2021/10/02 08:11:52;;;;;;;5.70;3.50;;;;;;;;;;10442819;28;20064;-71
2021/10/02 08:16:56;;;;;;;6.40;3.58;;;;;;;;;;10439713;28;20049;-71
2021/10/02 08:22:00;;;;;;;5.63;3.83;;;;;;;;;;10445002;28;20056;-69
2021/10/02 08:27:04;;;;;;;9.55;3.90;;;;;;;;;;10445497;28;20063;-69
2021/10/02 08:32:07;;;;;;;5.22;4.18;;;;;;;;;;10447737;28;20053;-71
2021/10/02 08:37:11;;;;;;;6.13;3.90;;;;;;;;;;10446276;28;20163;-71
2021/10/02 08:42:14;;;;;;;6.13;4.47;;;;;;;;;;10447928;28;20063;-71
2021/10/02 08:47:18;;;;;;;5.75;4.18;;;;;;;;;;10436959;28;20378;-69
2021/10/02 08:52:23;;;;;;;9.18;5.32;;;;;;;;;;10437555;28;20045;-72
2021/10/02 08:57:27;;;;;;;7.07;4.57;;;;;;;;;;10446753;28;20392;-71
2021/10/02 09:02:29;;;;;;;9.55;4.43;;;;;;;;;;10447796;28;20044;-70
2021/10/02 09:07:34;;;;;;;8.05;4.32;;;;;;;;;;10442821;28;20094;-71
2021/10/02 09:12:38;;;;;;;7.80;4.30;;;;;;;;;;10446949;28;20490;-71
2021/10/02 09:17:41;;;;;;;6.85;5.30;;;;;;;;;;10440153;28;20033;-68
2021/10/02 09:22:54;;;;;;;8.20;4.80;;;;;;;;;;10461898;28;20052;-70
2021/10/02 09:28:04;;;;;;;6.70;5.03;;;;;;;;;;10439659;28;20072;-69
2021/10/02 09:33:10;;;;;;;6.95;5.47;;;;;;;;;;10444971;28;20084;-69
2021/10/02 09:38:15;;;;;;;7.53;4.80;;;;;;;;;;10441050;28;20041;-70
2021/10/02 09:43:18;;;;;;;9.85;6.78;;;;;;;;;;10442102;28;20083;-69
2021/10/02 09:48:26;;;;;;;7.18;4.68;;;;;;;;;;10438279;28;20120;-70
2021/10/02 09:53:37;;;;;;;5.05;3.70;;;;;;;;;;10441190;28;20076;-70
2021/10/02 09:58:40;;;;;;;6.25;4.05;;;;;;;;;;10444452;28;20060;-70
2021/10/02 10:03:44;;;;;;;5.75;3.53;;;;;;;;;;10456411;28;20044;-68
2021/10/02 10:14:20;;;;;;;5.93;3.60;;;;;;;;;;10555043;27;20408;-69
2021/10/02 10:19:24;;;;;;;5.22;4.13;;;;;;;;;;10528363;28;20051;-70
2021/10/02 10:24:27;;;;;;;4.18;3.30;;;;;;;;;;10514018;28;20117;-69
2021/10/02 10:29:38;;;;;;;6.40;3.75;;;;;;;;;;10519255;28;20123;-70
2021/10/02 10:34:42;;;;;;;6.32;3.35;;;;;;;;;;10516843;28;20114;-67
2021/10/02 10:39:45;;;;;;;3.33;2.60;;;;;;;;;;10518438;28;20127;-70
2021/10/02 10:44:49;;;;;;;4.50;3.50;;;;;;;;;;10518005;28;20068;-69
2021/10/02 10:49:52;;;;;;;3.65;2.70;;;;;;;;;;10518176;28;20078;-70
2021/10/02 10:54:55;;;;;;;4.18;2.70;;;;;;;;;;10517635;28;20106;-70
2021/10/02 11:00:00;;;;;;;6.38;3.72;;;;;;;;;;10518103;28;20223;-70
2021/10/02 11:05:03;;;;;;;3.30;2.70;;;;;;;;;;10513848;28;20313;-70
2021/10/02 11:10:06;;;;;;;3.63;2.70;;;;;;;;;;10512371;28;20043;-70
2021/10/02 11:15:10;;;;;;;3.50;2.70;;;;;;;;;;10518506;28;20087;-69
2021/10/02 11:20:30;;;;;;;2.85;2.50;;;;;;;;;;10513770;28;20048;-70
2021/10/02 11:25:33;;;;;;;4.15;3.17;;;;;;;;;;10479963;28;20389;-70
2021/10/02 11:30:45;;;;;;;4.97;3.42;;;;;;;;;;10486086;28;20124;-70
2021/10/02 11:35:48;;;;;;;3.78;2.75;;;;;;;;;;10478759;28;20040;-70
2021/10/02 11:40:51;;;;;;;4.53;2.80;;;;;;;;;;10487533;28;20083;-71
2021/10/02 11:45:57;;;;;;;4.10;3.10;;;;;;;;;;10484850;28;20125;-70
2021/10/02 11:51:14;;;;;;;5.78;2.80;;;;;;;;;;10488576;28;20492;-70
2021/10/02 11:56:19;;;;;;;4.30;3.22;;;;;;;;;;10482177;28;20408;-69
2021/10/02 12:01:24;;;;;;;3.78;3.13;;;;;;;;;;10488941;28;20396;-70
2021/10/02 12:06:27;;;;;;;3.65;3.00;;;;;;;;;;10483246;28;20408;-70
2021/10/02 12:11:30;;;;;;;5.43;3.38;;;;;;;;;;10487044;28;20127;-70
2021/10/02 12:16:36;;;;;;;4.40;3.13;;;;;;;;;;10480236;28;20165;-71
2021/10/02 12:21:44;;;;;;;4.32;3.60;;;;;;;;;;10479406;28;20040;-70
2021/10/02 12:26:48;;;;;;;5.32;3.30;;;;;;;;;;10480370;28;20556;-70
2021/10/02 12:31:59;;;;;;;5.82;3.25;;;;;;;;;;10483591;28;20041;-70
2021/10/02 12:37:04;;;;;;;4.20;3.30;;;;;;;;;;10474959;28;20040;-69
2021/10/02 12:42:07;;;;;;;3.97;3.00;;;;;;;;;;10481864;28;20473;-70
2021/10/02 12:47:12;;;;;;;5.07;2.90;;;;;;;;;;10479751;28;20119;-70
2021/10/02 12:52:16;;;;;;;5.43;3.38;;;;;;;;;;10483024;28;20452;-70
2021/10/02 12:57:24;;;;;;;3.85;2.90;;;;;;;;;;10482407;28;20103;-70
2021/10/02 13:02:28;;;;;;;4.82;2.63;;;;;;;;;;10482416;28;20135;-70
2021/10/02 13:07:33;;;;;;;7.20;3.35;;;;;;;;;;10483944;28;20055;-71
2021/10/02 13:12:37;;;;;;;5.68;2.78;;;;;;;;;;10484049;28;20524;-70
2021/10/02 13:17:41;;;;;;;5.78;2.72;;;;;;;;;;10477631;28;20051;-69
2021/10/02 13:22:45;;;;;;;4.55;3.10;;;;;;;;;;10484491;28;20500;-69
2021/10/02 13:27:49;;;;;;;6.93;2.83;;;;;;;;;;10477902;28;20167;-71
2021/10/02 13:33:01;;;;;;;3.67;2.47;;;;;;;;;;10478708;28;20445;-71
2021/10/02 13:38:04;;;;;;;5.97;3.08;;;;;;;;;;10476498;28;20473;-70
2021/10/02 13:43:11;;;;;;;5.00;2.75;;;;;;;;;;10483572;28;20081;-71
2021/10/02 13:48:15;;;;;;;4.72;2.92;;;;;;;;;;10477978;28;20129;-68
2021/10/02 13:53:18;;;;;;;7.57;3.38;;;;;;;;;;10481852;28;20036;-70
2021/10/02 13:58:21;;;;;;;4.45;3.20;;;;;;;;;;10479100;28;20071;-71
2021/10/02 14:03:25;;;;;;;5.03;2.67;;;;;;;;;;10482092;28;20062;-68
2021/10/02 14:08:28;;;;;;;5.18;2.60;;;;;;;;;;10475509;28;20453;-69
2021/10/02 14:13:31;;;;;;;3.05;2.05;;;;;;;;;;10481505;28;20223;-71
2021/10/02 14:18:35;;;;;;;5.43;2.40;;;;;;;;;;10477965;28;20048;-70
2021/10/02 14:23:38;;;;;;;4.78;2.75;;;;;;;;;;10478834;28;20128;-70
2021/10/02 14:28:41;;;;;;;5.65;2.40;;;;;;;;;;10479926;28;20071;-70
2021/10/02 14:33:47;;;;;;;7.45;2.55;;;;;;;;;;10477180;28;20050;-70
2021/10/02 14:38:49;;;;;;;5.97;2.45;;;;;;;;;;10476127;28;20076;-70
2021/10/02 14:43:52;;;;;;;7.10;2.97;;;;;;;;;;10482456;28;20052;-70
2021/10/02 14:48:57;;;;;;;4.38;2.70;;;;;;;;;;10477639;28;20117;-71
2021/10/02 14:54:04;;;;;;;5.65;3.25;;;;;;;;;;10477792;28;20040;-71
2021/10/02 14:59:08;;;;;;;6.97;3.25;;;;;;;;;;10485175;28;20128;-70
2021/10/02 15:04:12;;;;;;;4.70;3.10;;;;;;;;;;10487667;28;20040;-71
2021/10/02 15:09:15;;;;;;;9.07;4.20;;;;;;;;;;10487031;28;20138;-68
2021/10/02 15:14:18;;;;;;;4.90;2.70;;;;;;;;;;10487674;28;20085;-69
2021/10/02 15:19:23;;;;;;;5.63;3.03;;;;;;;;;;10486049;28;20066;-70
2021/10/02 15:24:27;;;;;;;3.35;1.70;;;;;;;;;;10485272;28;20078;-70
2021/10/02 15:29:31;;;;;;;7.45;3.33;;;;;;;;;;10487954;28;20127;-71
2021/10/02 15:34:35;;;;;;;7.10;3.22;;;;;;;;;;10481433;28;20048;-71
2021/10/02 15:39:38;;;;;;;5.05;3.03;;;;;;;;;;10485631;28;20053;-71
2021/10/02 15:44:41;;;;;;;7.47;3.42;;;;;;;;;;10483684;28;20071;-71
2021/10/02 15:49:46;;;;;;;6.90;3.00;;;;;;;;;;10487214;28;20109;-70
2021/10/02 15:54:49;;;;;;;8.10;3.25;;;;;;;;;;10485782;28;20056;-71
2021/10/02 16:00:01;;;;;;;6.18;2.75;;;;;;;;;;10492575;28;20075;-71
2021/10/02 16:05:08;;;;;;;5.97;2.53;;;;;;;;;;10484927;28;20060;-68
2021/10/02 16:10:12;;;;;;;5.90;2.50;;;;;;;;;;10484881;28;20457;-68
2021/10/02 16:15:15;;;;;;;7.60;2.83;;;;;;;;;;10484935;28;20040;-70
2021/10/02 16:20:22;;;;;;;6.40;2.88;;;;;;;;;;10474443;28;20058;-70
2021/10/02 16:25:26;;;;;;;4.25;2.53;;;;;;;;;;10473936;28;20097;-70
2021/10/02 16:30:29;;;;;;;6.60;3.00;;;;;;;;;;10484819;28;20079;-71
2021/10/02 16:35:33;;;;;;;5.57;3.15;;;;;;;;;;10482454;28;20043;-70
2021/10/02 16:40:36;;;;;;;6.13;2.67;;;;;;;;;;10485794;28;20091;-70
2021/10/02 16:45:39;;;;;;;5.10;2.90;;;;;;;;;;10485182;28;20062;-71
2021/10/02 16:50:47;;;;;;;6.95;3.25;;;;;;;;;;10484404;28;20055;-70
2021/10/02 16:55:53;;;;;;;6.13;3.30;;;;;;;;;;10484553;28;20437;-69
2021/10/02 17:00:56;;;;;;;4.85;3.22;;;;;;;;;;10485452;28;20117;-70
2021/10/02 17:06:01;;;;;;;12.13;3.67;;;;;;;;;;10479922;28;20035;-70
2021/10/02 17:11:04;;;;;;;8.15;3.40;;;;;;;;;;10479918;28;20381;-70
2021/10/02 17:16:07;;;;;;;9.60;3.65;;;;;;;;;;10480123;28;20110;-71
2021/10/02 17:21:11;;;;;;;8.18;3.90;;;;;;;;;;10481652;28;20048;-71
2021/10/02 17:26:14;;;;;;;5.18;2.83;;;;;;;;;;10480797;28;20059;-70
2021/10/02 17:31:18;;;;;;;7.78;3.05;;;;;;;;;;10485168;28;20116;-70
2021/10/02 17:36:23;;;;;;;5.88;2.67;;;;;;;;;;10479118;28;20499;-69
2021/10/02 17:41:26;;;;;;;6.47;3.10;;;;;;;;;;10481380;28;20048;-70
2021/10/02 17:46:28;;;;;;;7.30;3.17;;;;;;;;;;10481633;28;20075;-69
2021/10/02 17:51:33;;;;;;;4.72;2.75;;;;;;;;;;10484450;28;20151;-70
2021/10/02 17:56:36;;;;;;;7.43;3.10;;;;;;;;;;10481768;28;20127;-70
2021/10/02 18:01:39;;;;;;;7.28;3.40;;;;;;;;;;10481267;28;20041;-70
2021/10/02 18:06:43;;;;;;;6.32;2.95;;;;;;;;;;10511854;28;20468;-69
2021/10/02 18:11:46;;;;;;;8.25;3.25;;;;;;;;;;10480345;28;20045;-70
2021/10/02 18:16:49;;;;;;;7.03;3.33;;;;;;;;;;10476561;28;20041;-69
2021/10/02 18:21:53;;;;;;;4.50;2.42;;;;;;;;;;10482872;28;20056;-69
2021/10/02 18:27:01;;;;;;;5.78;3.20;;;;;;;;;;10477428;28;20109;-71
2021/10/02 18:32:04;;;;;;;6.93;2.95;;;;;;;;;;10480560;28;20535;-69
2021/10/02 18:37:09;;;;;;;12.07;3.97;;;;;;;;;;10483089;28;20548;-70
2021/10/02 18:42:12;;;;;;;5.78;2.63;;;;;;;;;;10491515;28;20109;-70
2021/10/02 18:47:14;;;;;;;5.90;3.13;;;;;;;;;;10489359;28;20105;-72
2021/10/02 18:52:18;;;;;;;10.30;4.80;;;;;;;;;;10489831;28;20497;-70
2021/10/02 18:57:21;;;;;;;10.50;4.32;;;;;;;;;;10490236;28;20048;-70
2021/10/02 19:02:24;;;;;;;6.53;3.43;;;;;;;;;;10489343;28;20045;-70
2021/10/02 19:07:29;;;;;;;5.50;3.45;;;;;;;;;;10489512;28;20472;-68
2021/10/02 19:12:32;;;;;;;10.25;4.22;;;;;;;;;;10488543;28;20048;-70
2021/10/02 19:17:35;;;;;;;9.55;3.65;;;;;;;;;;10486740;28;20120;-70
2021/10/02 19:22:39;;;;;;;6.87;3.43;;;;;;;;;;10490055;28;20492;-70
2021/10/02 19:27:42;;;;;;;11.20;5.45;;;;;;;;;;10485907;28;20318;-71
2021/10/02 19:32:45;;;;;;;11.33;5.97;;;;;;;;;;10488632;28;20055;-69
2021/10/02 19:37:49;;;;;;;6.47;3.67;;;;;;;;;;10487880;28;20127;-71
2021/10/02 19:42:52;;;;;;;12.10;5.97;;;;;;;;;;10485070;28;20048;-70
2021/10/02 19:47:55;;;;;;;10.10;5.07;;;;;;;;;;10486939;28;20058;-70
2021/10/02 19:52:59;;;;;;;7.33;3.40;;;;;;;;;;10487679;28;20385;-71
2021/10/02 19:58:02;;;;;;;7.00;3.70;;;;;;;;;;10485980;28;20146;-70
2021/10/02 20:03:05;;;;;;;11.60;5.87;;;;;;;;;;10486284;28;20112;-70
2021/10/02 20:08:09;;;;;;;9.70;5.18;;;;;;;;;;10485465;28;20480;-70
2021/10/02 20:13:12;;;;;;;6.35;3.85;;;;;;;;;;10483671;28;20064;-70
2021/10/02 20:18:15;;;;;;;10.87;5.73;;;;;;;;;;10483592;28;20158;-70
2021/10/02 20:23:20;;;;;;;10.25;4.47;;;;;;;;;;10486946;28;20123;-71
2021/10/02 20:28:22;;;;;;;8.20;4.57;;;;;;;;;;10479516;28;20134;-71
2021/10/02 20:33:26;;;;;;;8.37;3.77;;;;;;;;;;10486215;28;20041;-72
2021/10/02 20:38:30;;;;;;;10.82;5.05;;;;;;;;;;10480196;28;20115;-71
2021/10/02 20:43:33;;;;;;;10.02;4.15;;;;;;;;;;10487790;28;20048;-69
2021/10/02 20:48:36;;;;;;;9.47;4.43;;;;;;;;;;10485211;28;20417;-71
2021/10/02 20:53:41;;;;;;;7.22;2.97;;;;;;;;;;10481536;28;20044;-71
2021/10/02 20:58:43;;;;;;;8.93;3.92;;;;;;;;;;10481340;28;20048;-71
2021/10/02 21:03:48;;;;;;;7.18;3.72;;;;;;;;;;10484819;28;20407;-70
2021/10/02 21:08:52;;;;;;;6.82;3.00;;;;;;;;;;10478527;28;20045;-70
2021/10/02 21:13:55;;;;;;;4.85;2.15;;;;;;;;;;10486723;28;20036;-70
2021/10/02 21:18:58;;;;;;;6.37;3.40;;;;;;;;;;10479922;28;20419;-69
2021/10/02 21:24:02;;;;;;;6.50;2.72;;;;;;;;;;10482606;28;20044;-70
2021/10/02 21:29:05;;;;;;;6.45;2.97;;;;;;;;;;10480990;28;20089;-70
2021/10/02 21:34:09;;;;;;;6.68;3.28;;;;;;;;;;10482812;28;20067;-72
2021/10/02 21:39:13;;;;;;;3.80;2.53;;;;;;;;;;10479947;28;20067;-71
2021/10/02 21:44:16;;;;;;;7.28;4.25;;;;;;;;;;10485589;28;20044;-70
2021/10/02 21:49:39;;;;;;;6.78;3.42;;;;;;;;;;10480181;28;21034;-71
2021/10/02 21:54:44;;;;;;;8.03;4.00;;;;;;;;;;10482845;28;20032;-72
2021/10/02 22:00:13;;;;;;;4.82;2.20;;;;;;;;;;10482855;28;20615;-70
2021/10/02 22:05:36;;;;;;;6.97;3.63;;;;;;;;;;10481045;28;20049;-71
2021/10/02 22:11:01;;;;;;;8.15;2.92;;;;;;;;;;10487116;28;20047;-71
2021/10/02 22:16:04;;;;;;;8.15;2.97;;;;;;;;;;10480848;28;20114;-71
2021/10/02 22:21:07;;;;;;;4.82;2.40;;;;;;;;;;10479248;28;20048;-71
2021/10/02 22:26:11;;;;;;;5.05;2.75;;;;;;;;;;10482181;28;20097;-71
2021/10/02 22:31:15;;;;;;;5.07;2.70;;;;;;;;;;10481650;28;20047;-72
2021/10/02 22:36:18;;;;;;;4.70;2.10;;;;;;;;;;10475727;28;20041;-69
2021/10/02 22:41:23;;;;;;;7.70;3.35;;;;;;;;;;10481567;28;20048;-69
2021/10/02 22:46:25;;;;;;;6.85;2.42;;;;;;;;;;10480238;28;20041;-70
2021/10/02 22:51:28;;;;;;;3.97;2.40;;;;;;;;;;10482600;28;20555;-66
2021/10/02 22:56:33;;;;;;;3.20;1.73;;;;;;;;;;10482599;28;20408;-70
2021/10/02 23:01:36;;;;;;;5.32;2.35;;;;;;;;;;10482474;28;20176;-71
2021/10/02 23:06:39;;;;;;;4.47;2.40;;;;;;;;;;10477132;28;20040;-67
2021/10/02 23:11:43;;;;;;;4.23;2.17;;;;;;;;;;10480600;28;20287;-70
2021/10/02 23:16:50;;;;;;;4.38;2.22;;;;;;;;;;10478575;28;20468;-70
2021/10/02 23:21:54;;;;;;;5.10;2.50;;;;;;;;;;10489238;28;20045;-71
2021/10/02 23:27:04;;;;;;;5.47;2.72;;;;;;;;;;10480066;28;20041;-70
2021/10/02 23:32:08;;;;;;;6.30;3.00;;;;;;;;;;10490159;28;20480;-71
2021/10/02 23:37:11;;;;;;;5.78;2.70;;;;;;;;;;10484521;28;20077;-70
2021/10/02 23:42:16;;;;;;;4.70;2.53;;;;;;;;;;10486673;28;20036;-70
2021/10/02 23:47:19;;;;;;;5.57;2.67;;;;;;;;;;10488184;28;20040;-69
2021/10/02 23:52:23;;;;;;;5.07;2.85;;;;;;;;;;10487383;28;20045;-71
2021/10/02 23:57:31;;;;;;;3.15;1.95;;;;;;;;;;10486611;28;20041;-69
